sensor_id;sensor_type;location;lat;lon;timestamp;pressure;altitude;pressure_sealevel;temperature;humidity
42411;BME280;28056;51.112;0.984;2023-01-04T00:00:37;100730.56;;;13.60;66.68
42411;BME280;28056;51.112;0.984;2023-01-04T00:03:05;100730.43;;;13.84;66.38
42411;BME280;28056;51.112;0.984;2023-01-04T00:05:33;100720.10;;;13.65;65.91
42411;BME280;28056;51.112;0.984;2023-01-04T00:08:00;100719.66;;;13.79;65.64
42411;BME280;28056;51.112;0.984;2023-01-04T00:10:28;100720.59;;;13.85;65.41
42411;BME280;28056;51.112;0.984;2023-01-04T00:12:55;100722.33;;;13.91;65.37
42411;BME280;28056;51.112;0.984;2023-01-04T00:15:22;100728.44;;;14.13;65.27
42411;BME280;28056;51.112;0.984;2023-01-04T00:17:50;100720.42;;;13.89;64.99
42411;BME280;28056;51.112;0.984;2023-01-04T00:20:18;100730.65;;;13.96;65.09
42411;BME280;28056;51.112;0.984;2023-01-04T00:22:45;100737.14;;;14.13;64.93
42411;BME280;28056;51.112;0.984;2023-01-04T00:25:13;100735.01;;;14.09;64.60
42411;BME280;28056;51.112;0.984;2023-01-04T00:27:41;100725.38;;;14.12;64.53
42411;BME280;28056;51.112;0.984;2023-01-04T00:30:09;100731.07;;;14.13;64.55
42411;BME280;28056;51.112;0.984;2023-01-04T00:32:36;100724.12;;;14.04;64.75
42411;BME280;28056;51.112;0.984;2023-01-04T00:35:05;100726.86;;;14.19;64.55
42411;BME280;28056;51.112;0.984;2023-01-04T00:37:32;100719.31;;;14.07;64.60
42411;BME280;28056;51.112;0.984;2023-01-04T00:39:59;100717.51;;;14.24;64.36
42411;BME280;28056;51.112;0.984;2023-01-04T00:42:27;100715.01;;;14.14;64.65
42411;BME280;28056;51.112;0.984;2023-01-04T00:44:55;100706.05;;;14.21;64.70
42411;BME280;28056;51.112;0.984;2023-01-04T00:47:22;100706.24;;;14.32;64.22
42411;BME280;28056;51.112;0.984;2023-01-04T00:49:50;100705.63;;;14.41;64.14
42411;BME280;28056;51.112;0.984;2023-01-04T00:52:18;100701.50;;;14.46;63.97
42411;BME280;28056;51.112;0.984;2023-01-04T00:54:45;100713.56;;;14.08;64.57
42411;BME280;28056;51.112;0.984;2023-01-04T00:57:12;100707.61;;;14.32;64.24
42411;BME280;28056;51.112;0.984;2023-01-04T00:59:40;100720.87;;;14.32;64.15
42411;BME280;28056;51.112;0.984;2023-01-04T01:04:53;100709.38;;;14.33;62.86
42411;BME280;28056;51.112;0.984;2023-01-04T01:07:21;100724.56;;;12.95;66.76
42411;BME280;28056;51.112;0.984;2023-01-04T01:09:49;100698.38;;;13.93;65.26
42411;BME280;28056;51.112;0.984;2023-01-04T01:12:16;100696.37;;;14.11;64.57
42411;BME280;28056;51.112;0.984;2023-01-04T01:14:44;100685.82;;;14.03;64.41
42411;BME280;28056;51.112;0.984;2023-01-04T01:17:11;100685.05;;;14.11;64.40
42411;BME280;28056;51.112;0.984;2023-01-04T01:19:38;100692.71;;;14.35;64.06
42411;BME280;28056;51.112;0.984;2023-01-04T01:22:06;100672.82;;;14.30;64.25
42411;BME280;28056;51.112;0.984;2023-01-04T01:24:33;100686.29;;;14.35;64.16
42411;BME280;28056;51.112;0.984;2023-01-04T01:27:01;100691.77;;;14.40;64.15
42411;BME280;28056;51.112;0.984;2023-01-04T01:29:28;100691.83;;;13.94;64.72
42411;BME280;28056;51.112;0.984;2023-01-04T01:31:56;100685.33;;;14.35;64.22
42411;BME280;28056;51.112;0.984;2023-01-04T01:34:24;100680.90;;;14.18;64.97
42411;BME280;28056;51.112;0.984;2023-01-04T01:36:52;100687.93;;;14.09;64.87
42411;BME280;28056;51.112;0.984;2023-01-04T01:39:19;100694.24;;;14.30;64.74
42411;BME280;28056;51.112;0.984;2023-01-04T01:41:47;100690.19;;;14.08;65.05
42411;BME280;28056;51.112;0.984;2023-01-04T01:45:26;100692.81;;;14.03;65.09
42411;BME280;28056;51.112;0.984;2023-01-04T01:47:55;100699.79;;;14.14;64.85
42411;BME280;28056;51.112;0.984;2023-01-04T01:50:26;100688.77;;;14.28;64.87
42411;BME280;28056;51.112;0.984;2023-01-04T01:52:58;100686.05;;;13.87;64.94
42411;BME280;28056;51.112;0.984;2023-01-04T01:55:28;100684.72;;;13.94;64.91
42411;BME280;28056;51.112;0.984;2023-01-04T01:57:56;100692.44;;;14.10;64.97
42411;BME280;28056;51.112;0.984;2023-01-04T02:00:24;100680.00;;;13.73;65.30
42411;BME280;28056;51.112;0.984;2023-01-04T02:02:59;100682.74;;;14.01;64.51
42411;BME280;28056;51.112;0.984;2023-01-04T02:05:31;100685.36;;;13.68;65.04
42411;BME280;28056;51.112;0.984;2023-01-04T02:07:59;100703.16;;;13.68;65.27
42411;BME280;28056;51.112;0.984;2023-01-04T02:10:30;100696.62;;;14.02;64.47
42411;BME280;28056;51.112;0.984;2023-01-04T02:12:59;100722.35;;;14.15;64.33
42411;BME280;28056;51.112;0.984;2023-01-04T02:15:36;100695.78;;;13.87;66.00
42411;BME280;28056;51.112;0.984;2023-01-04T02:18:09;100702.28;;;13.20;68.28
42411;BME280;28056;51.112;0.984;2023-01-04T02:20:43;100701.86;;;13.34;68.35
42411;BME280;28056;51.112;0.984;2023-01-04T02:24:02;100704.81;;;13.73;67.85
42411;BME280;28056;51.112;0.984;2023-01-04T02:26:52;100700.22;;;13.37;68.01
42411;BME280;28056;51.112;0.984;2023-01-04T02:31:26;100712.76;;;13.91;66.68
42411;BME280;28056;51.112;0.984;2023-01-04T02:34:04;100709.68;;;13.76;65.94
42411;BME280;28056;51.112;0.984;2023-01-04T02:36:39;100707.31;;;13.94;66.17
42411;BME280;28056;51.112;0.984;2023-01-04T02:39:17;100695.99;;;13.85;65.46
42411;BME280;28056;51.112;0.984;2023-01-04T02:41:52;100701.61;;;13.80;65.66
42411;BME280;28056;51.112;0.984;2023-01-04T02:44:28;100715.26;;;13.90;65.48
42411;BME280;28056;51.112;0.984;2023-01-04T02:47:01;100693.37;;;14.40;65.23
42411;BME280;28056;51.112;0.984;2023-01-04T02:49:30;100683.80;;;14.03;65.39
42411;BME280;28056;51.112;0.984;2023-01-04T02:51:58;100696.02;;;14.04;65.01
42411;BME280;28056;51.112;0.984;2023-01-04T02:54:28;100690.78;;;14.38;65.09
42411;BME280;28056;51.112;0.984;2023-01-04T02:57:06;100695.97;;;14.36;64.93
42411;BME280;28056;51.112;0.984;2023-01-04T02:59:55;100697.41;;;14.24;65.25
42411;BME280;28056;51.112;0.984;2023-01-04T03:02:45;100698.61;;;14.07;65.55
42411;BME280;28056;51.112;0.984;2023-01-04T03:05:20;100696.74;;;14.14;64.95
42411;BME280;28056;51.112;0.984;2023-01-04T03:07:55;100669.10;;;14.08;64.89
42411;BME280;28056;51.112;0.984;2023-01-04T03:10:33;100663.15;;;13.80;64.78
42411;BME280;28056;51.112;0.984;2023-01-04T03:13:05;100649.93;;;14.07;64.77
42411;BME280;28056;51.112;0.984;2023-01-04T03:15:36;100645.65;;;14.30;64.07
42411;BME280;28056;51.112;0.984;2023-01-04T03:18:10;100645.82;;;14.08;63.66
42411;BME280;28056;51.112;0.984;2023-01-04T03:20:41;100645.88;;;14.25;63.53
42411;BME280;28056;51.112;0.984;2023-01-04T03:23:14;100644.27;;;14.38;63.42
42411;BME280;28056;51.112;0.984;2023-01-04T03:25:47;100624.59;;;14.24;63.84
42411;BME280;28056;51.112;0.984;2023-01-04T03:28:17;100621.30;;;14.39;63.51
42411;BME280;28056;51.112;0.984;2023-01-04T03:30:50;100629.02;;;14.07;63.46
42411;BME280;28056;51.112;0.984;2023-01-04T03:33:20;100644.82;;;14.63;63.40
42411;BME280;28056;51.112;0.984;2023-01-04T03:35:54;100656.63;;;14.13;63.49
42411;BME280;28056;51.112;0.984;2023-01-04T03:38:30;100659.48;;;14.18;63.50
42411;BME280;28056;51.112;0.984;2023-01-04T03:41:02;100647.94;;;14.08;63.71
42411;BME280;28056;51.112;0.984;2023-01-04T03:43:34;100633.02;;;13.95;63.22
42411;BME280;28056;51.112;0.984;2023-01-04T03:46:07;100633.04;;;14.33;62.82
42411;BME280;28056;51.112;0.984;2023-01-04T03:48:42;100630.12;;;14.36;62.99
42411;BME280;28056;51.112;0.984;2023-01-04T03:51:14;100630.73;;;14.43;62.78
42411;BME280;28056;51.112;0.984;2023-01-04T03:53:49;100628.43;;;14.56;62.63
42411;BME280;28056;51.112;0.984;2023-01-04T03:56:20;100637.52;;;14.49;62.55
42411;BME280;28056;51.112;0.984;2023-01-04T03:58:49;100620.28;;;14.03;63.68
42411;BME280;28056;51.112;0.984;2023-01-04T04:01:17;100626.93;;;14.16;63.82
42411;BME280;28056;51.112;0.984;2023-01-04T04:03:46;100626.62;;;14.10;63.54
42411;BME280;28056;51.112;0.984;2023-01-04T04:06:13;100626.92;;;14.19;63.29
42411;BME280;28056;51.112;0.984;2023-01-04T04:08:40;100621.45;;;14.48;62.91
42411;BME280;28056;51.112;0.984;2023-01-04T04:11:07;100618.02;;;14.39;63.03
42411;BME280;28056;51.112;0.984;2023-01-04T04:13:35;100623.48;;;14.36;63.16
42411;BME280;28056;51.112;0.984;2023-01-04T04:16:03;100625.36;;;14.61;63.32
42411;BME280;28056;51.112;0.984;2023-01-04T04:18:30;100617.11;;;14.51;63.04
42411;BME280;28056;51.112;0.984;2023-01-04T04:20:58;100616.71;;;14.36;63.43
42411;BME280;28056;51.112;0.984;2023-01-04T04:23:26;100612.71;;;14.53;63.64
42411;BME280;28056;51.112;0.984;2023-01-04T04:25:53;100606.72;;;14.36;63.44
42411;BME280;28056;51.112;0.984;2023-01-04T04:28:21;100600.31;;;14.38;63.39
42411;BME280;28056;51.112;0.984;2023-01-04T04:30:49;100598.90;;;14.41;63.31
42411;BME280;28056;51.112;0.984;2023-01-04T04:33:16;100602.63;;;14.31;63.55
42411;BME280;28056;51.112;0.984;2023-01-04T04:35:44;100605.23;;;14.25;63.76
42411;BME280;28056;51.112;0.984;2023-01-04T04:38:15;100596.37;;;14.17;63.87
42411;BME280;28056;51.112;0.984;2023-01-04T04:40:43;100593.54;;;14.27;64.05
42411;BME280;28056;51.112;0.984;2023-01-04T04:43:19;100602.76;;;14.43;63.82
42411;BME280;28056;51.112;0.984;2023-01-04T04:45:47;100592.61;;;14.23;64.74
42411;BME280;28056;51.112;0.984;2023-01-04T04:48:22;100593.56;;;13.95;65.20
42411;BME280;28056;51.112;0.984;2023-01-04T04:50:49;100593.35;;;13.86;64.76
42411;BME280;28056;51.112;0.984;2023-01-04T04:53:17;100592.72;;;14.33;65.53
42411;BME280;28056;51.112;0.984;2023-01-04T04:55:45;100591.41;;;14.17;65.18
42411;BME280;28056;51.112;0.984;2023-01-04T04:58:12;100601.92;;;14.36;65.14
42411;BME280;28056;51.112;0.984;2023-01-04T05:00:40;100592.76;;;14.08;65.30
42411;BME280;28056;51.112;0.984;2023-01-04T05:03:08;100593.30;;;14.11;65.15
42411;BME280;28056;51.112;0.984;2023-01-04T05:05:35;100591.65;;;14.03;65.67
42411;BME280;28056;51.112;0.984;2023-01-04T05:08:03;100577.32;;;13.87;65.70
42411;BME280;28056;51.112;0.984;2023-01-04T05:10:31;100582.91;;;14.28;65.17
42411;BME280;28056;51.112;0.984;2023-01-04T05:12:59;100580.25;;;14.08;65.12
42411;BME280;28056;51.112;0.984;2023-01-04T05:15:27;100589.43;;;14.11;65.44
42411;BME280;28056;51.112;0.984;2023-01-04T05:17:55;100571.91;;;14.38;65.75
42411;BME280;28056;51.112;0.984;2023-01-04T05:20:22;100589.46;;;13.79;66.44
42411;BME280;28056;51.112;0.984;2023-01-04T05:22:50;100587.11;;;14.11;65.54
42411;BME280;28056;51.112;0.984;2023-01-04T05:25:18;100579.15;;;13.86;66.19
42411;BME280;28056;51.112;0.984;2023-01-04T05:27:45;100576.85;;;14.20;65.26
42411;BME280;28056;51.112;0.984;2023-01-04T05:30:14;100576.53;;;13.86;66.72
42411;BME280;28056;51.112;0.984;2023-01-04T05:32:42;100556.67;;;13.20;68.02
42411;BME280;28056;51.112;0.984;2023-01-04T05:35:10;100567.94;;;13.23;68.84
42411;BME280;28056;51.112;0.984;2023-01-04T05:37:37;100585.79;;;13.93;68.13
42411;BME280;28056;51.112;0.984;2023-01-04T05:40:05;100584.80;;;13.91;67.20
42411;BME280;28056;51.112;0.984;2023-01-04T05:42:33;100572.41;;;13.24;69.75
42411;BME280;28056;51.112;0.984;2023-01-04T05:45:01;100585.83;;;12.79;70.35
42411;BME280;28056;51.112;0.984;2023-01-04T05:47:28;100570.31;;;13.34;70.34
42411;BME280;28056;51.112;0.984;2023-01-04T05:49:56;100562.87;;;14.02;69.33
42411;BME280;28056;51.112;0.984;2023-01-04T05:52:23;100572.72;;;14.03;68.97
42411;BME280;28056;51.112;0.984;2023-01-04T05:54:50;100567.92;;;13.94;68.35
42411;BME280;28056;51.112;0.984;2023-01-04T05:57:18;100577.38;;;13.98;68.29
42411;BME280;28056;51.112;0.984;2023-01-04T05:59:45;100556.87;;;13.56;69.09
42411;BME280;28056;51.112;0.984;2023-01-04T06:02:18;100554.05;;;13.92;68.79
42411;BME280;28056;51.112;0.984;2023-01-04T06:04:46;100569.68;;;14.17;68.11
42411;BME280;28056;51.112;0.984;2023-01-04T06:07:14;100573.71;;;14.10;68.27
42411;BME280;28056;51.112;0.984;2023-01-04T06:09:41;100564.66;;;13.05;69.76
42411;BME280;28056;51.112;0.984;2023-01-04T06:12:09;100564.57;;;13.94;68.47
42411;BME280;28056;51.112;0.984;2023-01-04T06:14:37;100569.52;;;13.95;68.25
42411;BME280;28056;51.112;0.984;2023-01-04T06:17:06;100572.57;;;13.59;69.28
42411;BME280;28056;51.112;0.984;2023-01-04T06:19:34;100562.64;;;13.86;69.08
42411;BME280;28056;51.112;0.984;2023-01-04T06:22:01;100573.42;;;13.94;68.83
42411;BME280;28056;51.112;0.984;2023-01-04T06:24:29;100574.92;;;13.84;67.93
42411;BME280;28056;51.112;0.984;2023-01-04T06:26:56;100574.76;;;14.26;67.29
42411;BME280;28056;51.112;0.984;2023-01-04T06:29:23;100584.17;;;13.74;67.76
42411;BME280;28056;51.112;0.984;2023-01-04T06:31:50;100581.11;;;14.35;67.23
42411;BME280;28056;51.112;0.984;2023-01-04T06:34:18;100574.66;;;14.27;66.78
42411;BME280;28056;51.112;0.984;2023-01-04T06:36:45;100574.54;;;14.73;66.48
42411;BME280;28056;51.112;0.984;2023-01-04T06:39:12;100563.45;;;14.60;67.17
42411;BME280;28056;51.112;0.984;2023-01-04T06:41:40;100564.52;;;14.35;67.15
42411;BME280;28056;51.112;0.984;2023-01-04T06:44:07;100575.15;;;14.48;66.79
42411;BME280;28056;51.112;0.984;2023-01-04T06:46:35;100580.83;;;14.41;66.99
42411;BME280;28056;51.112;0.984;2023-01-04T06:49:03;100564.77;;;13.75;68.81
42411;BME280;28056;51.112;0.984;2023-01-04T06:51:30;100579.74;;;13.45;69.51
42411;BME280;28056;51.112;0.984;2023-01-04T06:53:58;100565.07;;;13.99;69.14
42411;BME280;28056;51.112;0.984;2023-01-04T06:56:26;100562.91;;;13.85;69.36
42411;BME280;28056;51.112;0.984;2023-01-04T06:58:54;100573.98;;;13.93;69.68
42411;BME280;28056;51.112;0.984;2023-01-04T07:01:21;100565.33;;;14.07;68.99
42411;BME280;28056;51.112;0.984;2023-01-04T07:03:48;100553.48;;;13.89;68.47
42411;BME280;28056;51.112;0.984;2023-01-04T07:06:16;100558.55;;;14.38;68.99
42411;BME280;28056;51.112;0.984;2023-01-04T07:08:43;100557.82;;;13.98;68.80
42411;BME280;28056;51.112;0.984;2023-01-04T07:11:10;100557.75;;;13.65;69.40
42411;BME280;28056;51.112;0.984;2023-01-04T07:13:38;100541.07;;;13.85;69.17
42411;BME280;28056;51.112;0.984;2023-01-04T07:16:06;100561.15;;;14.00;69.25
42411;BME280;28056;51.112;0.984;2023-01-04T07:18:33;100553.60;;;13.76;69.83
42411;BME280;28056;51.112;0.984;2023-01-04T07:21:00;100543.79;;;14.03;68.57
42411;BME280;28056;51.112;0.984;2023-01-04T07:23:28;100547.34;;;14.09;68.80
42411;BME280;28056;51.112;0.984;2023-01-04T07:26:00;100544.14;;;14.10;69.25
42411;BME280;28056;51.112;0.984;2023-01-04T07:28:27;100547.65;;;13.79;69.07
42411;BME280;28056;51.112;0.984;2023-01-04T07:30:55;100545.59;;;13.85;70.69
42411;BME280;28056;51.112;0.984;2023-01-04T07:33:23;100543.19;;;13.79;70.37
42411;BME280;28056;51.112;0.984;2023-01-04T07:35:50;100554.64;;;11.53;76.70
42411;BME280;28056;51.112;0.984;2023-01-04T07:38:18;100530.97;;;9.94;88.63
42411;BME280;28056;51.112;0.984;2023-01-04T07:40:52;100539.69;;;9.91;92.97
42411;BME280;28056;51.112;0.984;2023-01-04T07:43:19;100548.93;;;9.50;96.88
42411;BME280;28056;51.112;0.984;2023-01-04T07:45:47;100528.58;;;9.59;100.00
42411;BME280;28056;51.112;0.984;2023-01-04T07:48:15;100526.42;;;9.73;100.00
42411;BME280;28056;51.112;0.984;2023-01-04T07:50:44;100527.21;;;9.38;100.00
42411;BME280;28056;51.112;0.984;2023-01-04T07:53:11;100525.80;;;9.89;100.00
42411;BME280;28056;51.112;0.984;2023-01-04T07:55:39;100532.18;;;9.50;100.00
42411;BME280;28056;51.112;0.984;2023-01-04T07:58:05;100525.74;;;9.50;100.00
42411;BME280;28056;51.112;0.984;2023-01-04T08:00:33;100525.78;;;9.78;100.00
42411;BME280;28056;51.112;0.984;2023-01-04T08:03:01;100536.78;;;9.89;100.00
42411;BME280;28056;51.112;0.984;2023-01-04T08:05:31;100536.70;;;9.46;100.00
42411;BME280;28056;51.112;0.984;2023-01-04T08:07:58;100538.21;;;9.97;100.00
42411;BME280;28056;51.112;0.984;2023-01-04T08:10:26;100548.00;;;9.85;100.00
42411;BME280;28056;51.112;0.984;2023-01-04T08:12:54;100549.05;;;9.81;100.00
42411;BME280;28056;51.112;0.984;2023-01-04T08:15:24;100561.94;;;9.67;100.00
42411;BME280;28056;51.112;0.984;2023-01-04T08:17:51;100558.47;;;9.46;100.00
42411;BME280;28056;51.112;0.984;2023-01-04T08:20:19;100568.06;;;9.93;100.00
42411;BME280;28056;51.112;0.984;2023-01-04T08:22:47;100566.49;;;9.84;100.00
42411;BME280;28056;51.112;0.984;2023-01-04T08:25:15;100562.69;;;10.07;100.00
42411;BME280;28056;51.112;0.984;2023-01-04T08:27:42;100559.02;;;9.47;100.00
42411;BME280;28056;51.112;0.984;2023-01-04T08:30:10;100556.56;;;9.58;100.00
42411;BME280;28056;51.112;0.984;2023-01-04T08:32:39;100570.05;;;9.25;100.00
42411;BME280;28056;51.112;0.984;2023-01-04T08:35:07;100567.18;;;9.56;100.00
42411;BME280;28056;51.112;0.984;2023-01-04T08:37:34;100577.33;;;9.55;100.00
42411;BME280;28056;51.112;0.984;2023-01-04T08:40:01;100573.18;;;9.67;100.00
42411;BME280;28056;51.112;0.984;2023-01-04T08:42:29;100574.98;;;9.17;100.00
42411;BME280;28056;51.112;0.984;2023-01-04T08:44:57;100605.13;;;9.47;100.00
42411;BME280;28056;51.112;0.984;2023-01-04T08:47:24;100599.74;;;9.23;100.00
42411;BME280;28056;51.112;0.984;2023-01-04T08:49:52;100591.74;;;9.45;100.00
42411;BME280;28056;51.112;0.984;2023-01-04T08:52:20;100596.14;;;9.87;100.00
42411;BME280;28056;51.112;0.984;2023-01-04T08:54:48;100598.26;;;9.71;100.00
42411;BME280;28056;51.112;0.984;2023-01-04T08:57:15;100603.62;;;9.86;100.00
42411;BME280;28056;51.112;0.984;2023-01-04T08:59:43;100598.59;;;9.51;100.00
42411;BME280;28056;51.112;0.984;2023-01-04T09:02:19;100607.97;;;9.43;100.00
42411;BME280;28056;51.112;0.984;2023-01-04T09:04:47;100625.56;;;10.13;100.00
42411;BME280;28056;51.112;0.984;2023-01-04T09:07:15;100603.41;;;9.77;100.00
42411;BME280;28056;51.112;0.984;2023-01-04T09:09:42;100612.49;;;9.70;100.00
42411;BME280;28056;51.112;0.984;2023-01-04T09:12:10;100606.10;;;10.16;100.00
42411;BME280;28056;51.112;0.984;2023-01-04T09:14:38;100624.50;;;9.67;100.00
42411;BME280;28056;51.112;0.984;2023-01-04T09:17:05;100637.44;;;9.72;100.00
42411;BME280;28056;51.112;0.984;2023-01-04T09:19:33;100633.04;;;9.70;100.00
42411;BME280;28056;51.112;0.984;2023-01-04T09:22:01;100638.86;;;9.79;100.00
42411;BME280;28056;51.112;0.984;2023-01-04T09:24:31;100648.88;;;9.70;100.00
42411;BME280;28056;51.112;0.984;2023-01-04T09:26:59;100650.75;;;9.63;100.00
42411;BME280;28056;51.112;0.984;2023-01-04T09:29:26;100634.37;;;9.95;100.00
42411;BME280;28056;51.112;0.984;2023-01-04T09:31:54;100636.66;;;9.76;100.00
42411;BME280;28056;51.112;0.984;2023-01-04T09:34:22;100642.52;;;10.00;100.00
42411;BME280;28056;51.112;0.984;2023-01-04T09:36:49;100636.40;;;9.79;100.00
42411;BME280;28056;51.112;0.984;2023-01-04T09:39:18;100627.95;;;10.36;100.00
42411;BME280;28056;51.112;0.984;2023-01-04T09:41:48;100637.05;;;9.36;100.00
42411;BME280;28056;51.112;0.984;2023-01-04T09:44:27;100642.43;;;9.86;100.00
42411;BME280;28056;51.112;0.984;2023-01-04T09:47:01;100638.26;;;9.53;100.00
42411;BME280;28056;51.112;0.984;2023-01-04T09:49:34;100653.45;;;9.56;100.00
42411;BME280;28056;51.112;0.984;2023-01-04T09:52:09;100629.78;;;10.07;100.00
42411;BME280;28056;51.112;0.984;2023-01-04T09:54:43;100638.35;;;9.57;100.00
42411;BME280;28056;51.112;0.984;2023-01-04T09:57:18;100642.90;;;9.41;100.00
42411;BME280;28056;51.112;0.984;2023-01-04T09:59:50;100638.39;;;10.06;100.00
42411;BME280;28056;51.112;0.984;2023-01-04T10:02:23;100639.45;;;9.36;100.00
42411;BME280;28056;51.112;0.984;2023-01-04T10:04:57;100647.80;;;10.03;100.00
42411;BME280;28056;51.112;0.984;2023-01-04T10:07:27;100648.64;;;9.62;100.00
42411;BME280;28056;51.112;0.984;2023-01-04T10:09:56;100633.25;;;9.92;100.00
42411;BME280;28056;51.112;0.984;2023-01-04T10:12:38;100637.59;;;10.24;100.00
42411;BME280;28056;51.112;0.984;2023-01-04T10:15:19;100634.32;;;10.32;100.00
42411;BME280;28056;51.112;0.984;2023-01-04T10:17:59;100625.75;;;9.70;100.00
42411;BME280;28056;51.112;0.984;2023-01-04T10:20:55;100620.97;;;10.33;99.61
42411;BME280;28056;51.112;0.984;2023-01-04T10:23:35;100625.55;;;9.91;100.00
42411;BME280;28056;51.112;0.984;2023-01-04T10:26:10;100626.76;;;9.98;100.00
42411;BME280;28056;51.112;0.984;2023-01-04T10:28:50;100629.45;;;10.15;100.00
42411;BME280;28056;51.112;0.984;2023-01-04T10:31:25;100640.90;;;9.68;100.00
42411;BME280;28056;51.112;0.984;2023-01-04T10:33:58;100631.28;;;10.06;100.00
42411;BME280;28056;51.112;0.984;2023-01-04T10:36:30;100634.25;;;10.06;100.00
42411;BME280;28056;51.112;0.984;2023-01-04T10:39:00;100645.32;;;10.04;100.00
42411;BME280;28056;51.112;0.984;2023-01-04T10:41:32;100642.88;;;10.15;99.22
42411;BME280;28056;51.112;0.984;2023-01-04T10:44:09;100647.69;;;9.91;99.57
42411;BME280;28056;51.112;0.984;2023-01-04T10:46:45;100636.43;;;9.64;98.90
42411;BME280;28056;51.112;0.984;2023-01-04T10:49:17;100638.08;;;9.85;99.54
42411;BME280;28056;51.112;0.984;2023-01-04T10:51:53;100642.13;;;9.89;99.89
42411;BME280;28056;51.112;0.984;2023-01-04T10:54:27;100630.90;;;9.71;99.72
42411;BME280;28056;51.112;0.984;2023-01-04T10:57:02;100635.46;;;10.19;98.89
42411;BME280;28056;51.112;0.984;2023-01-04T10:59:35;100622.14;;;10.41;95.67
42411;BME280;28056;51.112;0.984;2023-01-04T11:02:09;100623.40;;;10.46;97.11
42411;BME280;28056;51.112;0.984;2023-01-04T11:04:43;100623.05;;;10.64;95.44
42411;BME280;28056;51.112;0.984;2023-01-04T11:07:19;100626.21;;;10.46;94.99
42411;BME280;28056;51.112;0.984;2023-01-04T11:09:51;100621.11;;;10.48;95.20
42411;BME280;28056;51.112;0.984;2023-01-04T11:12:21;100641.01;;;10.46;95.51
42411;BME280;28056;51.112;0.984;2023-01-04T11:14:50;100616.54;;;10.17;96.45
42411;BME280;28056;51.112;0.984;2023-01-04T11:17:19;100630.77;;;10.47;96.47
42411;BME280;28056;51.112;0.984;2023-01-04T11:19:48;100621.50;;;10.56;93.42
42411;BME280;28056;51.112;0.984;2023-01-04T11:22:20;100621.63;;;10.17;92.75
42411;BME280;28056;51.112;0.984;2023-01-04T11:25:02;100624.57;;;10.09;93.40
42411;BME280;28056;51.112;0.984;2023-01-04T11:27:40;100618.27;;;10.42;92.12
42411;BME280;28056;51.112;0.984;2023-01-04T11:30:15;100620.55;;;10.20;92.79
42411;BME280;28056;51.112;0.984;2023-01-04T11:32:50;100599.34;;;10.13;92.56
42411;BME280;28056;51.112;0.984;2023-01-04T11:35:37;100609.05;;;10.01;95.30
42411;BME280;28056;51.112;0.984;2023-01-04T11:38:10;100612.71;;;10.15;94.29
42411;BME280;28056;51.112;0.984;2023-01-04T11:40:39;100606.59;;;10.14;94.45
42411;BME280;28056;51.112;0.984;2023-01-04T11:43:15;100627.99;;;10.38;93.06
42411;BME280;28056;51.112;0.984;2023-01-04T11:45:55;100618.79;;;10.06;94.64
42411;BME280;28056;51.112;0.984;2023-01-04T11:48:35;100615.28;;;9.96;91.88
42411;BME280;28056;51.112;0.984;2023-01-04T11:51:03;100603.75;;;9.62;94.09
42411;BME280;28056;51.112;0.984;2023-01-04T11:53:32;100602.40;;;9.44;94.87
42411;BME280;28056;51.112;0.984;2023-01-04T11:56:11;100604.13;;;9.95;93.54
42411;BME280;28056;51.112;0.984;2023-01-04T11:58:40;100603.03;;;10.02;92.32
42411;BME280;28056;51.112;0.984;2023-01-04T12:01:19;100611.05;;;10.17;93.18
42411;BME280;28056;51.112;0.984;2023-01-04T12:03:47;100608.33;;;9.94;92.36
42411;BME280;28056;51.112;0.984;2023-01-04T12:06:18;100614.14;;;10.23;90.74
42411;BME280;28056;51.112;0.984;2023-01-04T12:08:47;100610.35;;;10.52;92.23
42411;BME280;28056;51.112;0.984;2023-01-04T12:11:21;100604.89;;;9.68;92.55
42411;BME280;28056;51.112;0.984;2023-01-04T12:13:50;100615.97;;;9.86;94.49
42411;BME280;28056;51.112;0.984;2023-01-04T12:16:23;100607.11;;;9.93;93.72
42411;BME280;28056;51.112;0.984;2023-01-04T12:18:55;100598.76;;;9.80;93.59
42411;BME280;28056;51.112;0.984;2023-01-04T12:21:24;100602.67;;;9.91;93.06
42411;BME280;28056;51.112;0.984;2023-01-04T12:23:53;100620.43;;;9.85;93.55
42411;BME280;28056;51.112;0.984;2023-01-04T12:26:21;100610.81;;;10.15;91.95
42411;BME280;28056;51.112;0.984;2023-01-04T12:28:49;100612.84;;;10.06;91.27
42411;BME280;28056;51.112;0.984;2023-01-04T12:31:33;100621.41;;;9.72;93.81
42411;BME280;28056;51.112;0.984;2023-01-04T12:34:39;100622.97;;;10.35;90.28
42411;BME280;28056;51.112;0.984;2023-01-04T12:37:07;100611.53;;;10.29;89.80
42411;BME280;28056;51.112;0.984;2023-01-04T12:39:38;100609.95;;;9.60;91.73
42411;BME280;28056;51.112;0.984;2023-01-04T12:42:10;100609.11;;;10.81;87.75
42411;BME280;28056;51.112;0.984;2023-01-04T12:45:14;100611.47;;;10.48;89.86
42411;BME280;28056;51.112;0.984;2023-01-04T12:47:45;100604.78;;;10.61;87.21
42411;BME280;28056;51.112;0.984;2023-01-04T12:50:14;100605.73;;;10.59;86.78
42411;BME280;28056;51.112;0.984;2023-01-04T12:52:43;100614.97;;;10.12;89.17
42411;BME280;28056;51.112;0.984;2023-01-04T12:55:52;100626.07;;;10.02;87.37
42411;BME280;28056;51.112;0.984;2023-01-04T12:59:11;100628.32;;;10.62;86.82
42411;BME280;28056;51.112;0.984;2023-01-04T13:01:38;100618.57;;;9.81;87.46
42411;BME280;28056;51.112;0.984;2023-01-04T13:04:39;100622.86;;;10.67;85.05
42411;BME280;28056;51.112;0.984;2023-01-04T13:07:13;100607.58;;;9.78;89.13
42411;BME280;28056;51.112;0.984;2023-01-04T13:09:50;100600.62;;;10.00;87.02
42411;BME280;28056;51.112;0.984;2023-01-04T13:12:40;100621.46;;;10.39;85.71
42411;BME280;28056;51.112;0.984;2023-01-04T13:15:18;100618.98;;;9.74;87.01